createdAt,value
2023-05-19T00:01:24.961Z,12.70
2023-05-19T00:03:57.972Z,12.70
2023-05-19T00:06:27.327Z,12.60
2023-05-19T00:09:00.193Z,12.60
2023-05-19T00:11:28.409Z,12.50
2023-05-19T00:13:57.309Z,12.50
2023-05-19T00:16:25.598Z,12.40
2023-05-19T00:18:53.614Z,12.40
2023-05-19T00:21:21.303Z,12.40
2023-05-19T00:23:48.434Z,12.30
2023-05-19T00:26:15.708Z,12.30
2023-05-19T00:28:42.776Z,12.30
2023-05-19T00:31:09.929Z,12.30
2023-05-19T00:33:37.158Z,12.30
2023-05-19T00:36:04.788Z,12.40
2023-05-19T00:38:34.877Z,12.40
2023-05-19T00:41:04.039Z,12.40
2023-05-19T00:43:31.572Z,12.40
2023-05-19T00:45:58.730Z,12.40
2023-05-19T00:48:26.750Z,12.40
2023-05-19T00:50:58.050Z,12.30
2023-05-19T00:53:25.267Z,12.20
2023-05-19T00:55:52.506Z,12.30
2023-05-19T00:58:19.994Z,12.20
2023-05-19T01:00:47.151Z,12.20
2023-05-19T01:03:15.274Z,12.20
2023-05-19T01:05:44.794Z,12.20
2023-05-19T01:08:12.118Z,12.20
2023-05-19T01:10:39.375Z,12.20
2023-05-19T01:13:07.629Z,12.20
2023-05-19T01:15:41.924Z,12.20
2023-05-19T01:18:14.356Z,12.20
2023-05-19T01:21:16.164Z,12.20
2023-05-19T01:23:57.159Z,12.10
2023-05-19T01:26:49.710Z,12.10
2023-05-19T01:29:20.061Z,12.10
2023-05-19T01:31:50.527Z,12.00
2023-05-19T01:34:19.386Z,12.10
2023-05-19T01:36:49.892Z,12.00
2023-05-19T01:39:17.345Z,12.10
2023-05-19T01:41:45.942Z,12.10
2023-05-19T01:44:13.861Z,12.10
2023-05-19T01:46:41.800Z,12.00
2023-05-19T01:49:09.735Z,12.10
2023-05-19T01:51:37.086Z,12.00
2023-05-19T01:54:04.487Z,12.10
2023-05-19T01:56:55.315Z,12.10
2023-05-19T01:59:42.246Z,12.00
2023-05-19T02:02:35.117Z,12.10
2023-05-19T02:05:13.276Z,12.10
2023-05-19T02:07:57.636Z,12.10
2023-05-19T02:10:31.092Z,12.10
2023-05-19T02:13:04.783Z,12.10
2023-05-19T02:15:40.322Z,12.00
2023-05-19T02:18:12.427Z,12.00
2023-05-19T02:20:40.861Z,12.00
2023-05-19T02:23:08.264Z,12.00
2023-05-19T02:25:35.613Z,12.00
2023-05-19T02:28:02.858Z,11.90
2023-05-19T02:30:32.123Z,11.90
2023-05-19T02:32:59.808Z,11.90
2023-05-19T02:35:28.017Z,11.90
2023-05-19T02:37:55.400Z,11.90
2023-05-19T02:40:23.022Z,11.80
2023-05-19T02:42:50.198Z,11.80
2023-05-19T02:45:17.344Z,11.80
2023-05-19T02:47:44.712Z,11.70
2023-05-19T02:50:11.997Z,11.70
2023-05-19T02:52:39.164Z,11.60
2023-05-19T02:55:06.785Z,11.60
2023-05-19T02:57:35.405Z,11.60
2023-05-19T03:00:02.743Z,11.60
2023-05-19T03:02:30.131Z,11.50
2023-05-19T03:04:57.964Z,11.50
2023-05-19T03:07:25.385Z,11.50
2023-05-19T03:09:53.101Z,11.50
2023-05-19T03:12:20.308Z,11.60
2023-05-19T03:14:47.720Z,11.60
2023-05-19T03:17:14.850Z,11.60
2023-05-19T03:19:42.491Z,11.50
2023-05-19T03:22:09.885Z,11.50
2023-05-19T03:24:37.115Z,11.50
2023-05-19T03:27:07.852Z,11.50
2023-05-19T03:29:35.034Z,11.50
2023-05-19T03:32:02.176Z,11.50
2023-05-19T03:34:29.612Z,11.50
2023-05-19T03:36:56.676Z,11.40
2023-05-19T03:39:23.814Z,11.40
2023-05-19T03:41:51.384Z,11.40
2023-05-19T03:44:18.586Z,11.40
2023-05-19T03:46:45.730Z,11.30
2023-05-19T03:49:13.957Z,11.30
2023-05-19T03:51:41.221Z,11.30
2023-05-19T03:54:08.532Z,11.20
2023-05-19T03:56:39.532Z,11.20
2023-05-19T03:59:07.400Z,11.20
2023-05-19T04:01:34.616Z,11.20
2023-05-19T04:04:02.440Z,11.20
2023-05-19T04:06:29.646Z,11.10
2023-05-19T04:08:56.691Z,11.10
2023-05-19T04:11:23.989Z,11.10
2023-05-19T04:13:51.198Z,11.10
2023-05-19T04:16:18.416Z,11.10
2023-05-19T04:18:46.545Z,11.10
2023-05-19T04:21:13.757Z,11.10
2023-05-19T04:23:40.962Z,11.10
2023-05-19T04:26:08.178Z,11.20
2023-05-19T04:28:39.109Z,11.00
2023-05-19T04:31:10.824Z,11.10
2023-05-19T04:33:38.475Z,11.10
2023-05-19T04:36:09.081Z,11.20
2023-05-19T04:38:37.535Z,11.20
2023-05-19T04:41:04.618Z,11.20
2023-05-19T04:43:31.757Z,11.20
2023-05-19T04:45:58.904Z,11.20
2023-05-19T04:48:26.183Z,11.30
2023-05-19T04:50:53.437Z,11.30
2023-05-19T04:53:22.062Z,11.40
2023-05-19T04:55:50.296Z,11.50
2023-05-19T04:58:17.432Z,11.50
2023-05-19T05:00:44.644Z,11.40
2023-05-19T05:03:14.525Z,11.40
2023-05-19T05:05:41.872Z,11.40
2023-05-19T05:08:10.803Z,11.40
2023-05-19T05:10:37.958Z,11.40
2023-05-19T05:13:05.265Z,11.50
2023-05-19T05:15:32.703Z,11.60
2023-05-19T05:18:00.822Z,11.70
2023-05-19T05:20:28.901Z,11.80
2023-05-19T05:22:57.730Z,11.90
2023-05-19T05:25:25.299Z,12.00
2023-05-19T05:27:52.536Z,12.00
2023-05-19T05:30:19.830Z,12.00
2023-05-19T05:32:47.374Z,12.00
2023-05-19T05:35:15.365Z,11.90
2023-05-19T05:37:42.767Z,12.00
2023-05-19T05:40:10.454Z,12.10
2023-05-19T05:42:38.051Z,12.20
2023-05-19T05:45:05.682Z,12.20
2023-05-19T05:47:33.159Z,12.20
2023-05-19T05:50:00.740Z,12.40
2023-05-19T05:52:30.960Z,12.40
2023-05-19T05:54:58.600Z,12.40
2023-05-19T05:57:25.814Z,12.40
2023-05-19T05:59:53.109Z,12.50
2023-05-19T06:02:21.098Z,12.60
2023-05-19T06:04:48.268Z,12.70
2023-05-19T06:07:15.759Z,12.70
2023-05-19T06:09:42.883Z,12.70
2023-05-19T06:12:10.224Z,12.80
2023-05-19T06:14:37.408Z,12.70
2023-05-19T06:17:04.704Z,12.70
2023-05-19T06:19:32.197Z,12.80
2023-05-19T06:21:59.189Z,12.80
2023-05-19T06:24:27.203Z,12.80
2023-05-19T06:26:54.505Z,12.80
2023-05-19T06:29:21.557Z,12.90
2023-05-19T06:31:49.198Z,13.00
2023-05-19T06:34:17.917Z,13.10
2023-05-19T06:36:45.079Z,13.30
2023-05-19T06:39:12.275Z,13.20
2023-05-19T06:41:39.427Z,13.00
2023-05-19T06:44:09.122Z,13.10
2023-05-19T06:46:36.430Z,13.30
2023-05-19T06:49:03.559Z,13.50
2023-05-19T06:51:31.501Z,13.70
2023-05-19T06:53:58.590Z,13.80
2023-05-19T06:56:25.783Z,13.60
2023-05-19T06:58:53.040Z,13.60
2023-05-19T07:01:20.308Z,13.60
2023-05-19T07:03:47.721Z,13.70
2023-05-19T07:06:15.152Z,13.80
2023-05-19T07:08:42.139Z,13.70
2023-05-19T07:11:09.481Z,13.70
2023-05-19T07:13:36.584Z,13.70
2023-05-19T07:16:04.302Z,13.60
2023-05-19T07:18:32.039Z,13.60
2023-05-19T07:20:59.335Z,13.70
2023-05-19T07:23:26.537Z,13.80
2023-05-19T07:25:57.218Z,13.80
2023-05-19T07:28:24.387Z,13.90
2023-05-19T07:30:52.029Z,13.80
2023-05-19T07:33:19.202Z,13.60
2023-05-19T07:35:46.399Z,13.70
2023-05-19T07:38:13.642Z,13.60
2023-05-19T07:40:40.836Z,13.60
2023-05-19T07:43:08.099Z,13.70
2023-05-19T07:45:35.327Z,13.40
2023-05-19T07:48:02.629Z,13.40
2023-05-19T07:50:30.127Z,13.40
2023-05-19T07:52:57.267Z,13.50
2023-05-19T07:55:24.498Z,13.60
2023-05-19T07:57:51.755Z,13.70
2023-05-19T08:00:19.984Z,13.80
2023-05-19T08:02:47.529Z,13.80
2023-05-19T08:05:15.145Z,13.70
2023-05-19T08:07:42.368Z,13.70
2023-05-19T08:10:09.731Z,13.70
2023-05-19T08:12:36.966Z,13.90
2023-05-19T08:15:04.351Z,13.90
2023-05-19T08:17:31.714Z,14.00
2023-05-19T08:19:58.758Z,14.00
2023-05-19T08:22:26.025Z,14.10
2023-05-19T08:24:53.221Z,14.00
2023-05-19T08:27:20.330Z,14.10
2023-05-19T08:29:47.552Z,14.10
2023-05-19T08:32:14.791Z,14.10
2023-05-19T08:34:42.276Z,14.00
2023-05-19T08:37:09.449Z,13.90
2023-05-19T08:39:36.874Z,14.00
2023-05-19T08:42:04.451Z,14.00
2023-05-19T08:44:31.811Z,14.20
2023-05-19T08:47:03.621Z,14.20
2023-05-19T08:49:33.871Z,14.30
2023-05-19T08:52:06.384Z,14.40
2023-05-19T08:54:41.599Z,14.30
2023-05-19T08:57:10.090Z,14.20
2023-05-19T08:59:37.645Z,14.20
2023-05-19T09:02:05.864Z,14.20
2023-05-19T09:04:33.009Z,14.30
2023-05-19T09:07:04.209Z,14.20
2023-05-19T09:09:31.977Z,14.20
2023-05-19T09:11:59.200Z,14.10
2023-05-19T09:14:26.800Z,14.10
2023-05-19T09:16:54.673Z,14.20
2023-05-19T09:19:22.794Z,14.40
2023-05-19T09:22:05.099Z,14.30
2023-05-19T09:24:33.920Z,14.10
2023-05-19T09:27:02.323Z,14.00
2023-05-19T09:29:29.734Z,14.00
2023-05-19T09:32:05.357Z,14.20
2023-05-19T09:34:32.535Z,14.30
2023-05-19T09:37:00.087Z,14.30
2023-05-19T09:39:28.857Z,14.20
2023-05-19T09:41:58.941Z,14.20
2023-05-19T09:44:30.540Z,14.00
2023-05-19T09:47:01.095Z,13.90
2023-05-19T09:49:33.029Z,13.90
2023-05-19T09:52:04.210Z,14.00
2023-05-19T09:54:32.806Z,14.00
2023-05-19T09:57:05.224Z,14.00
2023-05-19T09:59:34.223Z,14.00
2023-05-19T10:02:02.675Z,13.90
2023-05-19T10:04:31.474Z,13.90
2023-05-19T10:07:06.300Z,13.70
2023-05-19T10:09:36.534Z,13.60
2023-05-19T10:12:04.392Z,13.70
2023-05-19T10:14:31.659Z,13.70
2023-05-19T10:16:59.731Z,13.80
2023-05-19T10:19:28.652Z,13.80
2023-05-19T10:21:56.850Z,14.00
2023-05-19T10:24:24.255Z,13.90
2023-05-19T10:27:03.889Z,13.80
2023-05-19T10:29:36.578Z,13.60
2023-05-19T10:32:10.685Z,13.60
2023-05-19T10:35:15.847Z,13.60
2023-05-19T10:38:04.573Z,13.60
2023-05-19T10:40:41.217Z,13.70
2023-05-19T10:43:47.285Z,13.80
2023-05-19T10:46:14.756Z,13.90
2023-05-19T10:48:46.263Z,13.90
2023-05-19T10:51:15.497Z,13.90
2023-05-19T10:53:50.255Z,13.90
2023-05-19T10:56:36.460Z,13.90
2023-05-19T10:59:04.201Z,13.90
2023-05-19T11:01:34.071Z,14.10
2023-05-19T11:04:38.819Z,14.10
2023-05-19T11:07:06.292Z,14.10
2023-05-19T11:09:41.229Z,14.00
2023-05-19T11:12:10.645Z,14.00
2023-05-19T11:14:38.037Z,14.20
2023-05-19T11:17:12.949Z,14.30
2023-05-19T11:19:42.058Z,14.40
2023-05-19T11:22:10.090Z,14.50
2023-05-19T11:24:40.190Z,14.60
2023-05-19T11:27:27.842Z,14.50
2023-05-19T11:30:00.230Z,14.50
2023-05-19T11:32:30.303Z,14.40
2023-05-19T11:34:58.408Z,14.30
2023-05-19T11:37:26.035Z,14.30
2023-05-19T11:39:53.420Z,14.20
2023-05-19T11:42:20.681Z,14.20
2023-05-19T11:44:48.007Z,14.20
2023-05-19T11:47:16.010Z,14.30
2023-05-19T11:49:54.904Z,14.20
2023-05-19T11:52:23.301Z,14.30
2023-05-19T11:54:51.031Z,14.40
2023-05-19T11:57:18.724Z,14.30
2023-05-19T11:59:48.215Z,14.40
2023-05-19T12:02:19.632Z,14.40
2023-05-19T12:04:50.081Z,14.50
2023-05-19T12:07:23.071Z,14.60
2023-05-19T12:09:55.465Z,14.70
2023-05-19T12:12:23.331Z,14.70
2023-05-19T12:14:52.049Z,14.70
2023-05-19T12:17:21.030Z,14.60
2023-05-19T12:19:49.352Z,14.60
2023-05-19T12:22:17.809Z,14.60
2023-05-19T12:24:46.393Z,14.40
2023-05-19T12:27:20.904Z,14.20
2023-05-19T12:29:54.039Z,14.20
2023-05-19T12:32:25.807Z,14.20
2023-05-19T12:34:53.956Z,14.20
2023-05-19T12:37:21.277Z,14.30
2023-05-19T12:39:51.863Z,14.40
2023-05-19T12:42:18.960Z,14.50
2023-05-19T12:44:50.028Z,14.60
2023-05-19T12:47:20.136Z,14.70
2023-05-19T12:50:05.652Z,14.80
2023-05-19T12:52:43.664Z,14.80
2023-05-19T12:55:11.874Z,14.80
2023-05-19T12:57:44.199Z,14.80
2023-05-19T13:00:25.215Z,14.90
2023-05-19T13:03:04.542Z,14.90
2023-05-19T13:05:40.718Z,15.00
2023-05-19T13:08:09.655Z,14.90
2023-05-19T13:10:38.598Z,14.90
2023-05-19T13:13:07.141Z,14.80
2023-05-19T13:15:37.841Z,14.80
2023-05-19T13:18:07.048Z,14.70
2023-05-19T13:20:35.641Z,14.60
2023-05-19T13:23:03.536Z,14.60
2023-05-19T13:25:30.924Z,14.70
2023-05-19T13:28:01.195Z,14.70
2023-05-19T13:30:31.936Z,14.80
2023-05-19T13:32:59.438Z,14.80
2023-05-19T13:35:26.600Z,14.90
2023-05-19T13:37:54.104Z,14.60
2023-05-19T13:40:21.288Z,14.50
2023-05-19T13:42:48.403Z,14.50
2023-05-19T13:45:15.654Z,14.40
2023-05-19T13:47:42.834Z,14.40
2023-05-19T13:50:10.054Z,14.50
2023-05-19T13:52:37.193Z,14.70
2023-05-19T13:55:06.678Z,14.80
2023-05-19T13:57:35.493Z,14.90
2023-05-19T14:00:04.607Z,15.10
2023-05-19T14:02:32.339Z,15.30
2023-05-19T14:04:59.846Z,15.30
2023-05-19T14:07:28.319Z,15.40
2023-05-19T14:09:55.531Z,15.40
2023-05-19T14:12:27.768Z,15.30
2023-05-19T14:15:02.345Z,15.10
2023-05-19T14:17:29.656Z,15.10
2023-05-19T14:19:57.002Z,15.10
2023-05-19T14:22:24.176Z,15.10
2023-05-19T14:24:51.582Z,15.20
2023-05-19T14:27:18.932Z,15.30
2023-05-19T14:29:45.956Z,15.20
2023-05-19T14:32:13.628Z,15.20
2023-05-19T14:34:40.962Z,15.10
2023-05-19T14:37:08.079Z,15.20
2023-05-19T14:39:35.590Z,15.30
2023-05-19T14:42:03.083Z,15.40
2023-05-19T14:44:32.111Z,15.40
2023-05-19T14:47:01.306Z,15.50
2023-05-19T14:49:28.925Z,15.50
2023-05-19T14:51:56.418Z,15.40
2023-05-19T14:54:25.349Z,15.50
2023-05-19T14:56:52.773Z,15.60
2023-05-19T14:59:20.033Z,15.70
2023-05-19T15:01:47.360Z,15.60
2023-05-19T15:04:14.969Z,15.70
2023-05-19T15:06:42.491Z,15.60
2023-05-19T15:09:11.013Z,15.50
2023-05-19T15:11:38.358Z,15.40
2023-05-19T15:14:05.954Z,15.40
2023-05-19T15:16:33.234Z,15.30
2023-05-19T15:19:00.706Z,15.30
2023-05-19T15:21:28.304Z,15.30
2023-05-19T15:23:55.307Z,15.30
2023-05-19T15:26:22.588Z,15.30
2023-05-19T15:28:49.793Z,15.30
2023-05-19T15:31:17.889Z,15.40
2023-05-19T15:33:45.457Z,15.50
2023-05-19T15:36:16.732Z,15.50
2023-05-19T15:38:43.917Z,15.70
2023-05-19T15:41:11.236Z,15.60
2023-05-19T15:43:38.970Z,15.60
2023-05-19T15:46:06.188Z,15.60
2023-05-19T15:48:33.575Z,15.70
2023-05-19T15:51:00.987Z,15.60
2023-05-19T15:53:28.255Z,15.70
2023-05-19T15:55:57.496Z,15.80
2023-05-19T15:58:24.718Z,15.70
2023-05-19T16:00:51.968Z,15.70
2023-05-19T16:03:19.275Z,15.70
2023-05-19T16:05:46.966Z,15.70
2023-05-19T16:08:14.428Z,15.80
2023-05-19T16:10:41.799Z,15.80
2023-05-19T16:13:08.980Z,15.90
2023-05-19T16:15:36.173Z,16.00
2023-05-19T16:18:03.268Z,15.90
2023-05-19T16:20:31.109Z,15.90
2023-05-19T16:22:58.542Z,15.80
2023-05-19T16:25:25.911Z,15.80
2023-05-19T16:27:53.026Z,15.70
2023-05-19T16:30:20.162Z,15.60
2023-05-19T16:32:47.434Z,15.60
2023-05-19T16:35:14.895Z,15.60
2023-05-19T16:37:41.934Z,15.60
2023-05-19T16:40:09.592Z,15.50
2023-05-19T16:42:36.737Z,15.40
2023-05-19T16:45:04.485Z,15.50
2023-05-19T16:47:31.963Z,15.50
2023-05-19T16:49:59.113Z,15.60
2023-05-19T16:52:26.517Z,15.70
2023-05-19T16:54:53.880Z,15.70
2023-05-19T16:57:21.128Z,15.80
2023-05-19T16:59:49.647Z,15.80
2023-05-19T17:02:16.898Z,15.90
2023-05-19T17:04:44.371Z,15.70
2023-05-19T17:07:15.871Z,15.70
2023-05-19T17:09:43.468Z,15.60
2023-05-19T17:12:11.002Z,15.60
2023-05-19T17:14:38.124Z,15.70
2023-05-19T17:17:05.411Z,15.70
2023-05-19T17:19:32.737Z,15.80
2023-05-19T17:22:00.004Z,15.90
2023-05-19T17:24:28.907Z,15.90
2023-05-19T17:26:56.171Z,15.90
2023-05-19T17:29:23.560Z,16.00
2023-05-19T17:31:50.800Z,15.90
2023-05-19T17:34:17.952Z,15.90
2023-05-19T17:36:45.033Z,15.90
2023-05-19T17:39:12.301Z,15.80
2023-05-19T17:41:39.521Z,15.90
2023-05-19T17:44:06.937Z,15.90
2023-05-19T17:46:39.770Z,16.00
2023-05-19T17:49:07.424Z,16.10
2023-05-19T17:51:34.840Z,16.10
2023-05-19T17:54:02.326Z,16.10
2023-05-19T17:56:33.106Z,16.00
2023-05-19T17:59:00.588Z,16.00
2023-05-19T18:01:27.972Z,15.90
2023-05-19T18:03:55.667Z,15.90
2023-05-19T18:06:24.508Z,15.90
2023-05-19T18:08:53.434Z,15.80
2023-05-19T18:11:21.458Z,15.80
2023-05-19T18:13:48.942Z,15.90
2023-05-19T18:16:16.192Z,15.90
2023-05-19T18:18:46.318Z,16.00
2023-05-19T18:21:17.792Z,16.00
2023-05-19T18:23:46.021Z,15.90
2023-05-19T18:26:13.568Z,15.90
2023-05-19T18:28:41.873Z,15.90
2023-05-19T18:31:09.389Z,15.80
2023-05-19T18:33:36.700Z,15.70
2023-05-19T18:36:03.884Z,15.60
2023-05-19T18:38:31.294Z,15.40
2023-05-19T18:41:00.837Z,15.30
2023-05-19T18:43:30.191Z,15.30
2023-05-19T18:45:58.360Z,15.10
2023-05-19T18:48:28.823Z,15.00
2023-05-19T18:50:55.950Z,15.00
2023-05-19T18:53:23.267Z,15.00
2023-05-19T18:55:50.528Z,14.90
2023-05-19T18:58:18.850Z,14.80
2023-05-19T19:00:46.064Z,14.70
2023-05-19T19:03:13.415Z,14.70
2023-05-19T19:05:40.762Z,14.60
2023-05-19T19:08:08.121Z,14.50
2023-05-19T19:10:39.074Z,14.40
2023-05-19T19:13:06.805Z,14.30
2023-05-19T19:15:34.068Z,14.20
2023-05-19T19:18:01.465Z,14.10
2023-05-19T19:20:28.866Z,14.00
2023-05-19T19:22:56.355Z,14.00
2023-05-19T19:25:23.953Z,13.90
2023-05-19T19:27:51.633Z,13.80
2023-05-19T19:30:19.176Z,13.80
2023-05-19T19:32:46.409Z,13.70
2023-05-19T19:35:13.848Z,13.60
2023-05-19T19:37:41.226Z,13.50
2023-05-19T19:40:08.637Z,13.50
2023-05-19T19:42:35.897Z,13.40
2023-05-19T19:45:03.232Z,13.30
2023-05-19T19:47:31.090Z,13.30
2023-05-19T19:49:59.088Z,13.30
2023-05-19T19:52:26.896Z,13.30
2023-05-19T19:54:54.110Z,13.20
2023-05-19T19:57:21.331Z,13.20
2023-05-19T19:59:55.176Z,13.10
2023-05-19T20:02:23.097Z,13.10
2023-05-19T20:04:50.455Z,13.10
2023-05-19T20:07:23.368Z,13.00
2023-05-19T20:09:52.884Z,13.00
2023-05-19T20:12:21.280Z,13.10
2023-05-19T20:14:51.388Z,13.10
2023-05-19T20:17:18.806Z,13.10
2023-05-19T20:19:46.764Z,13.10
2023-05-19T20:22:14.325Z,13.20
2023-05-19T20:24:41.597Z,13.10
2023-05-19T20:27:09.490Z,13.10
2023-05-19T20:29:36.835Z,12.90
2023-05-19T20:32:04.004Z,12.90
2023-05-19T20:34:31.770Z,12.90
2023-05-19T20:36:59.006Z,12.90
2023-05-19T20:39:26.302Z,12.90
2023-05-19T20:41:53.521Z,12.80
2023-05-19T20:44:21.678Z,12.80
2023-05-19T20:46:48.666Z,12.90
2023-05-19T20:49:15.833Z,12.90
2023-05-19T20:51:43.097Z,13.00
2023-05-19T20:54:10.371Z,13.10
2023-05-19T20:56:37.647Z,13.00
2023-05-19T20:59:04.784Z,13.10
2023-05-19T21:01:32.118Z,13.10
2023-05-19T21:03:59.404Z,13.10
2023-05-19T21:06:26.666Z,13.10
2023-05-19T21:08:53.867Z,13.00
2023-05-19T21:11:21.241Z,13.00
2023-05-19T21:13:48.429Z,13.00
2023-05-19T21:16:15.673Z,12.90
2023-05-19T21:18:43.141Z,13.00
2023-05-19T21:21:10.798Z,13.00
2023-05-19T21:23:38.048Z,13.00
2023-05-19T21:26:06.501Z,13.00
2023-05-19T21:28:33.665Z,12.90
2023-05-19T21:31:00.781Z,12.80
2023-05-19T21:33:27.966Z,12.80
2023-05-19T21:35:55.155Z,12.80
2023-05-19T21:38:24.220Z,12.70
2023-05-19T21:40:52.765Z,12.70
2023-05-19T21:43:19.985Z,12.60
2023-05-19T21:45:47.136Z,12.60
2023-05-19T21:48:14.209Z,12.60
2023-05-19T21:50:41.377Z,12.60
2023-05-19T21:53:08.540Z,12.60
2023-05-19T21:55:35.712Z,12.50
2023-05-19T21:58:03.032Z,12.50
2023-05-19T22:00:30.288Z,12.50
2023-05-19T22:02:57.497Z,12.50
2023-05-19T22:05:24.947Z,12.50
2023-05-19T22:07:51.990Z,12.50
2023-05-19T22:10:19.318Z,12.50
2023-05-19T22:12:46.513Z,12.50
2023-05-19T22:15:14.564Z,12.40
2023-05-19T22:17:42.373Z,12.40
2023-05-19T22:20:09.986Z,12.40
2023-05-19T22:22:37.355Z,12.40
2023-05-19T22:25:05.251Z,12.30
2023-05-19T22:27:32.549Z,12.30
2023-05-19T22:29:59.860Z,12.30
2023-05-19T22:32:27.217Z,12.30
2023-05-19T22:34:54.399Z,12.20
2023-05-19T22:37:24.000Z,12.20
2023-05-19T22:39:51.719Z,12.30
2023-05-19T22:42:18.732Z,12.30
2023-05-19T22:44:46.107Z,12.30
2023-05-19T22:47:13.989Z,12.30
2023-05-19T22:49:42.265Z,12.30
2023-05-19T22:52:11.070Z,12.20
2023-05-19T22:54:38.512Z,12.30
2023-05-19T22:57:05.897Z,12.20
2023-05-19T22:59:33.181Z,12.20
2023-05-19T23:02:00.323Z,12.20
2023-05-19T23:04:28.109Z,12.10
2023-05-19T23:06:55.666Z,12.10
2023-05-19T23:09:22.787Z,12.00
2023-05-19T23:11:50.191Z,12.10
2023-05-19T23:14:21.831Z,12.10
2023-05-19T23:16:49.487Z,12.20
2023-05-19T23:19:17.184Z,12.00
2023-05-19T23:21:45.982Z,11.90
2023-05-19T23:24:13.108Z,11.90
2023-05-19T23:26:40.176Z,11.90
2023-05-19T23:29:07.466Z,11.80
2023-05-19T23:31:35.034Z,12.00
2023-05-19T23:34:03.131Z,12.10
2023-05-19T23:36:30.087Z,12.20
2023-05-19T23:38:57.284Z,12.20
2023-05-19T23:41:24.383Z,12.10
2023-05-19T23:43:51.726Z,12.00
2023-05-19T23:46:18.913Z,11.90
2023-05-19T23:48:47.107Z,11.90
2023-05-19T23:51:14.471Z,11.90
2023-05-19T23:53:41.612Z,11.90
2023-05-19T23:56:08.755Z,11.80
2023-05-19T23:58:35.929Z,11.80
